Here is the Quick Look data you requested

The Data originates at the National Weather Service, and is made available here by the UAlbany Department of Atmospheric and Environmental Sciences

Surface Observations

KFDK 202350Z 00000KT 9SM SCT150 32/26 A2989=
KFDK 210047Z 00000KT 9SM SCT150 31/26 A2989=
KFDK 210125Z AUTO 00000KT 7SM CLR 30/25 A2990 RMK AO2=
KFDK 210145Z AUTO 00000KT 10SM CLR 29/25 A2991 RMK AO2=
KFDK 210205Z AUTO 22003KT 10SM CLR 30/25 A2992 RMK AO2=
KFDK 210225Z AUTO 00000KT 10SM CLR 29/25 A2991 RMK AO2=
KFDK 210245Z AUTO 20003KT 10SM CLR 30/25 A2991 RMK AO2=
KFDK 210305Z AUTO 00000KT 10SM CLR 29/25 A2990 RMK AO2=
KFDK 210325Z AUTO 18004KT 10SM CLR 28/25 A2991 RMK AO2=
KFDK 210345Z AUTO 00000KT 10SM CLR 28/25 A2991 RMK AO2=
KFDK 210405Z AUTO 00000KT 10SM CLR 28/24 A2992 RMK AO2=
KFDK 210425Z AUTO 29003KT 10SM CLR 28/24 A2991 RMK AO2=
KFDK 210445Z AUTO 29004KT 10SM CLR 29/23 A2991 RMK AO2=
KFDK 210505Z AUTO 28005KT 10SM CLR 31/23 A2992 RMK AO2=
KFDK 210525Z AUTO 28004KT 10SM CLR 31/22 A2992 RMK AO2=
KFDK 210545Z AUTO 28004KT 10SM CLR 31/22 A2991 RMK AO2=
KFDK 210605Z AUTO 00000KT 10SM CLR 31/22 A2991 RMK AO2=
KFDK 210625Z AUTO 21003KT 10SM CLR 30/23 A2991 RMK AO2=
KFDK 210645Z AUTO 23006KT 10SM CLR 30/23 A2991 RMK AO2=
KFDK 210705Z AUTO 16003KT 10SM CLR 28/23 A2990 RMK AO2=
KFDK 210725Z AUTO 19005KT 10SM CLR 29/23 A2988 RMK AO2 LTG DSNT W=
KFDK 210745Z AUTO 22006KT 10SM CLR 29/23 A2989 RMK AO2=
KFDK 210805Z AUTO 21004KT 10SM CLR 28/23 A2990 RMK AO2=
KFDK 210825Z AUTO 18004KT 10SM CLR 27/23 A2988 RMK AO2=
KFDK 210845Z AUTO 18004KT 10SM CLR 27/23 A2988 RMK AO2=
KFDK 210905Z AUTO 18005KT 10SM CLR 27/23 A2989 RMK AO2=
KFDK 210925Z AUTO 19005KT 10SM CLR 26/23 A2988 RMK AO2=
KFDK 210945Z AUTO 17003KT 10SM CLR 26/23 A2988 RMK AO2=
KFDK 211005Z AUTO 18003KT 10SM CLR 26/23 A2989 RMK AO2=
KFDK 211025Z AUTO 17003KT 10SM CLR 27/23 A2990 RMK AO2=
KFDK 211045Z AUTO 15004KT 10SM CLR 27/23 A2992 RMK AO2=
KFDK 211105Z AUTO 16003KT 10SM CLR 27/23 A2992 RMK AO2=
KFDK 211147Z 18004KT 10SM SCT070 29/23 A2994=
KFDK 211247Z 26004KT 10SM SCT070 31/23 A2995=
KFDK 211347Z 29010G16KT 10SM SKC 33/23 A2994=
KFDK 211447Z 28008KT 10SM SKC 33/23 A2994=
KFDK 211547Z 29004KT 10SM SCT041 34/23 A2993=
KFDK 211647Z 27009G14KT 10SM SCT039 SCT046 SCT050 34/23 A2993=
KFDK 211753Z 28006KT 10SM SKC 36/23 A2992=
KFDK 211847Z 32004KT 7SM SCT050 36/23 A2990=
KFDK 211947Z 26008KT 10SM SCT050 SCT065 37/23 A2987=
KFDK 212047Z 24010G15KT 10SM SCT050 37/23 A2987=
KFDK 212147Z 26010KT 10SM SKC 37/22 A2986=
KFDK 212247Z 22005KT 10SM SKC 36/23 A2987=
KFDK 212300Z 20008KT 10SM VCTS BKN050 BKB060 36/22 A2987 RMK LTG DSNT SW AND W=
KFDK 212333Z 26025G30KT 3SM +TSRA OVC050 33/23 A2990=
KFDK 212347Z 30035G45KT 2SM +TSRA BKN020 OVC050 26/21 A2993=
KFDK 220047Z VRB05KT 7SM -TSRA BKN043 BKN060 24/22 A2994 RMK LTG DSNT ALQS=
KFDK 220125Z AUTO 07004KT 10SM -RA SCT065 SCT100 BKN120 23/22 A2990 RMK AO2 LTG
 DSNT E W AND NW P0001=
KFDK 220145Z AUTO 10005KT 10SM -RA SCT065 SCT080 SCT110 23/22 A2990 RMK AO2 LTG
 DSNT E W AND NW P0001=
KFDK 220205Z AUTO 05003KT 10SM CLR 24/22 A2990 RMK AO2 LTG DSNT E AND NW=
KFDK 220225Z AUTO 10006KT 10SM CLR 24/22 A2990 RMK AO2 LTG DSNT E=
KFDK 220245Z AUTO 14004KT 10SM CLR 24/22 A2992 RMK AO2 LTG DSNT E=
KFDK 220305Z AUTO 23007KT 10SM CLR 24/22 A2994 RMK AO2 LTG DSNT NE=
KFDK 220325Z AUTO 00000KT 10SM CLR 24/22 A2993 RMK AO2 LTG DSNT NW=
KFDK 220345Z AUTO 20004KT 10SM CLR 24/22 A2993 RMK AO2 LTG DSNT W AND NW=
KFDK 220405Z AUTO 19004KT 10SM CLR 24/22 A2993 RMK AO2=
KFDK 220425Z AUTO 00000KT 10SM CLR 24/22 A2993 RMK AO2=
KFDK 220445Z AUTO 21005KT 10SM CLR 24/22 A2992 RMK AO2=
KFDK 220505Z AUTO 00000KT 10SM CLR 23/22 A2992 RMK AO2=
KFDK 220525Z AUTO 00000KT 10SM CLR 23/22 A2992 RMK AO2=
KFDK 220545Z AUTO 23003KT 10SM CLR 24/22 A2993 RMK AO2=
KFDK 220605Z AUTO 00000KT 10SM CLR 23/22 A2993 RMK AO2=